createdAt,value
2023-04-26T00:01:40.207Z,24.88
2023-04-26T00:06:43.896Z,25.76
2023-04-26T00:11:47.632Z,25.34
2023-04-26T00:16:53.107Z,25.66
2023-04-26T00:21:56.746Z,26.73
2023-04-26T00:27:00.349Z,25.41
2023-04-26T00:32:06.078Z,25.19
2023-04-26T00:37:09.727Z,25.20
2023-04-26T00:42:13.363Z,24.08
2023-04-26T00:47:18.683Z,23.59
2023-04-26T00:52:23.365Z,24.00
2023-04-26T00:57:27.076Z,24.36
2023-04-26T01:02:32.522Z,23.92
2023-04-26T01:07:37.603Z,24.72
2023-04-26T01:12:41.252Z,24.47
2023-04-26T01:17:49.489Z,23.77
2023-04-26T01:22:54.869Z,23.98
2023-04-26T01:27:58.476Z,24.13
2023-04-26T01:33:02.168Z,24.35
2023-04-26T01:38:07.495Z,23.74
2023-04-26T01:43:11.141Z,24.85
2023-04-26T01:48:14.786Z,24.50
2023-04-26T01:53:20.043Z,25.20
2023-04-26T01:58:23.846Z,29.50
2023-04-26T02:03:27.496Z,31.74
2023-04-26T02:08:32.746Z,33.78
2023-04-26T02:13:36.400Z,34.77
2023-04-26T02:18:40.025Z,34.65
2023-04-26T02:23:45.450Z,36.23
2023-04-26T02:33:51.869Z,39.44
2023-04-26T02:38:57.168Z,39.65
2023-04-26T02:44:00.782Z,40.20
2023-04-26T02:49:04.437Z,40.96
2023-04-26T02:54:09.737Z,42.73
2023-04-26T02:59:13.340Z,42.61
2023-04-26T03:04:17.120Z,43.97
2023-04-26T03:09:22.422Z,44.92
2023-04-26T03:14:26.530Z,45.44
2023-04-26T03:19:30.120Z,45.89
2023-04-26T03:24:35.467Z,46.33
2023-04-26T03:29:39.083Z,46.93
2023-04-26T03:34:42.689Z,47.33
2023-04-26T03:39:47.932Z,48.27
2023-04-26T03:44:50.826Z,49.83
2023-04-26T03:49:54.427Z,49.35
2023-04-26T03:54:59.744Z,50.12
2023-04-26T04:00:02.602Z,51.89
2023-04-26T04:05:06.958Z,50.13
2023-04-26T04:10:12.809Z,51.12
2023-04-26T04:15:16.832Z,51.72
2023-04-26T04:20:20.688Z,52.33
2023-04-26T04:25:25.974Z,52.92
2023-04-26T04:30:29.693Z,53.03
2023-04-26T04:35:33.344Z,54.00
2023-04-26T04:40:38.748Z,53.81
2023-04-26T04:45:42.337Z,54.33
2023-04-26T04:50:45.927Z,55.48
2023-04-26T04:55:51.136Z,55.84
2023-04-26T05:00:54.784Z,55.17
2023-04-26T05:05:58.501Z,56.01
2023-04-26T05:11:03.806Z,57.05
2023-04-26T05:16:07.758Z,57.25
2023-04-26T05:21:11.425Z,57.65
2023-04-26T05:26:17.734Z,59.19
2023-04-26T05:31:21.404Z,58.61
2023-04-26T05:36:25.393Z,58.05
2023-04-26T05:41:31.672Z,59.33
2023-04-26T05:46:35.271Z,60.03
2023-04-26T05:51:38.877Z,59.88
2023-04-26T05:56:44.160Z,60.48
2023-04-26T06:01:47.822Z,59.89
2023-04-26T06:06:51.572Z,60.03
2023-04-26T06:11:56.880Z,60.90
2023-04-26T06:17:00.619Z,60.40
2023-04-26T06:22:04.312Z,60.62
2023-04-26T06:27:09.816Z,60.71
2023-04-26T06:32:13.527Z,60.17
2023-04-26T06:37:17.169Z,60.75
2023-04-26T06:42:22.508Z,60.91
2023-04-26T06:47:26.259Z,60.98
2023-04-26T06:52:29.931Z,61.43
2023-04-26T06:57:35.184Z,62.69
2023-04-26T07:02:38.902Z,62.51
2023-04-26T07:07:42.574Z,62.33
2023-04-26T07:12:47.935Z,63.14
2023-04-26T07:17:51.668Z,62.43
2023-04-26T07:22:55.266Z,63.83
2023-04-26T07:28:00.524Z,65.17
2023-04-26T07:33:04.225Z,65.11
2023-04-26T07:38:08.001Z,65.65
2023-04-26T07:43:13.241Z,65.15
2023-04-26T07:48:17.828Z,65.47
2023-04-26T07:53:21.500Z,65.40
2023-04-26T07:58:26.797Z,64.61
2023-04-26T08:03:30.633Z,65.04
2023-04-26T08:08:34.390Z,65.52
2023-04-26T08:13:39.689Z,66.71
2023-04-26T08:18:46.083Z,66.16
2023-04-26T08:23:50.783Z,65.88
2023-04-26T08:28:56.396Z,67.02
2023-04-26T08:33:59.988Z,65.86
2023-04-26T08:39:03.601Z,66.12
2023-04-26T08:44:10.249Z,67.50
2023-04-26T08:49:23.381Z,66.88
2023-04-26T08:54:27.773Z,66.55
2023-04-26T08:59:34.288Z,66.40
2023-04-26T09:04:38.519Z,66.76
2023-04-26T09:09:45.902Z,67.71
2023-04-26T09:14:51.226Z,66.85
2023-04-26T09:19:54.989Z,67.33
2023-04-26T09:24:58.682Z,66.71
2023-04-26T09:30:07.343Z,66.90
2023-04-26T09:35:21.895Z,68.35
2023-04-26T09:40:26.365Z,67.83
2023-04-26T09:45:33.929Z,68.38
2023-04-26T09:50:37.597Z,67.50
2023-04-26T09:55:41.447Z,67.96
2023-04-26T10:00:50.642Z,66.84
2023-04-26T10:05:54.716Z,67.21
2023-04-26T10:10:58.466Z,67.29
2023-04-26T10:16:04.047Z,68.65
2023-04-26T10:21:12.074Z,68.39
2023-04-26T10:26:48.326Z,69.56
2023-04-26T10:32:09.839Z,69.53
2023-04-26T10:37:14.570Z,68.04
2023-04-26T10:42:23.963Z,70.06
2023-04-26T10:47:34.942Z,69.81
2023-04-26T10:53:00.904Z,69.42
2023-04-26T10:58:27.807Z,71.24
2023-04-26T11:03:33.441Z,69.79
2023-04-26T11:08:37.399Z,69.08
2023-04-26T11:13:44.385Z,69.76
2023-04-26T11:18:50.450Z,71.03
2023-04-26T11:23:56.533Z,71.04
2023-04-26T11:29:00.186Z,70.46
2023-04-26T11:34:07.594Z,71.03
2023-04-26T11:39:13.062Z,69.41
2023-04-26T11:44:20.241Z,71.17
2023-04-26T11:49:25.776Z,72.96
2023-04-26T11:54:30.256Z,71.47
2023-04-26T11:59:33.939Z,71.03
2023-04-26T12:04:39.804Z,71.20
2023-04-26T12:09:43.553Z,70.73
2023-04-26T12:14:48.490Z,70.29
2023-04-26T12:19:53.777Z,71.33
2023-04-26T12:25:06.573Z,72.73
2023-04-26T12:30:10.999Z,72.15
2023-04-26T12:35:16.528Z,71.07
2023-04-26T12:40:20.476Z,70.31
2023-04-26T12:45:24.790Z,69.45
2023-04-26T12:50:30.254Z,69.21
2023-04-26T12:55:33.955Z,68.79
2023-04-26T13:00:37.620Z,67.55
2023-04-26T13:05:42.983Z,68.10
2023-04-26T13:10:46.588Z,67.90
2023-04-26T13:15:50.314Z,68.84
2023-04-26T13:20:55.579Z,70.14
2023-04-26T13:25:59.214Z,70.16
2023-04-26T13:31:03.231Z,71.27
2023-04-26T13:36:08.976Z,71.75
2023-04-26T13:41:12.712Z,71.75
2023-04-26T13:46:16.357Z,71.60
2023-04-26T13:51:21.907Z,71.48
2023-04-26T13:56:26.309Z,73.32
2023-04-26T14:01:30.178Z,73.62
2023-04-26T14:06:36.458Z,74.60
2023-04-26T14:11:39.342Z,76.04
2023-04-26T14:16:43.204Z,74.84
2023-04-26T14:21:48.484Z,75.02
2023-04-26T14:26:52.063Z,73.85
2023-04-26T14:31:55.735Z,73.81
2023-04-26T14:37:01.051Z,73.42
2023-04-26T14:42:04.990Z,71.99
2023-04-26T14:47:08.654Z,71.73
2023-04-26T14:52:13.872Z,71.46
2023-04-26T14:57:17.504Z,70.46
2023-04-26T15:02:21.211Z,68.77
2023-04-26T15:07:32.019Z,66.37
2023-04-26T15:12:36.567Z,65.61
2023-04-26T15:17:40.199Z,64.52
2023-04-26T15:22:45.513Z,63.98
2023-04-26T15:27:49.209Z,61.62
2023-04-26T15:32:52.869Z,59.80
2023-04-26T15:37:58.205Z,57.58
2023-04-26T15:43:02.545Z,56.65
2023-04-26T15:48:07.037Z,54.18
2023-04-26T15:53:12.331Z,53.03
2023-04-26T15:58:15.965Z,52.20
2023-04-26T16:03:19.889Z,51.56
2023-04-26T16:08:39.474Z,48.94
2023-04-26T16:13:44.158Z,48.92
2023-04-26T16:18:47.804Z,48.55
2023-04-26T16:23:53.058Z,48.48
2023-04-26T16:28:56.643Z,48.55
2023-04-26T16:34:00.237Z,45.22
2023-04-26T16:39:05.465Z,45.02
2023-04-26T16:44:09.144Z,45.80
2023-04-26T16:49:12.735Z,43.78
2023-04-26T16:54:18.025Z,43.31
2023-04-26T16:59:21.095Z,42.52
2023-04-26T17:04:25.534Z,43.10
2023-04-26T17:09:31.102Z,42.30
2023-04-26T17:14:34.802Z,42.15
2023-04-26T17:19:38.428Z,42.59
2023-04-26T17:24:43.687Z,41.66
2023-04-26T17:29:47.292Z,42.47
2023-04-26T17:34:50.895Z,41.96
2023-04-26T17:39:56.149Z,41.58
2023-04-26T17:44:59.886Z,42.33
2023-04-26T17:50:03.622Z,42.86
2023-04-26T17:55:09.860Z,43.53
2023-04-26T18:00:14.667Z,42.24
2023-04-26T18:05:18.304Z,41.50
2023-04-26T18:10:23.579Z,40.93
2023-04-26T18:15:27.339Z,40.30
2023-04-26T18:20:30.997Z,41.52
2023-04-26T18:25:36.348Z,42.64
2023-04-26T18:30:40.016Z,42.25
2023-04-26T18:35:44.339Z,41.34
2023-04-26T18:40:49.830Z,41.85
2023-04-26T18:45:53.470Z,42.73
2023-04-26T18:50:57.181Z,42.36
2023-04-26T18:56:02.423Z,40.53
2023-04-26T19:01:06.073Z,41.54
2023-04-26T19:06:10.049Z,39.90
2023-04-26T19:11:15.449Z,40.93
2023-04-26T19:16:19.901Z,38.82
2023-04-26T19:21:23.698Z,37.10
2023-04-26T19:26:29.090Z,37.24
2023-04-26T19:31:32.712Z,37.84
2023-04-26T19:36:36.328Z,34.32
2023-04-26T19:41:41.555Z,34.46
2023-04-26T19:46:45.290Z,34.05
2023-04-26T19:51:49.015Z,29.24
2023-04-26T19:56:54.323Z,30.34
2023-04-26T20:01:57.932Z,29.65
2023-04-26T20:07:01.614Z,31.53
2023-04-26T20:12:07.121Z,33.30
2023-04-26T20:17:10.717Z,32.44
2023-04-26T20:22:14.358Z,32.96
2023-04-26T20:27:19.712Z,32.58
2023-04-26T20:32:23.560Z,31.82
2023-04-26T20:37:29.393Z,32.79
2023-04-26T20:42:35.552Z,30.71
2023-04-26T20:47:39.241Z,30.36
2023-04-26T20:52:42.895Z,29.05
2023-04-26T20:57:48.148Z,26.72
2023-04-26T21:02:51.799Z,25.96
2023-04-26T21:07:55.520Z,23.71
2023-04-26T21:13:00.742Z,22.41
2023-04-26T21:18:04.525Z,19.91
2023-04-26T21:23:08.257Z,21.29
2023-04-26T21:28:13.679Z,24.71
2023-04-26T21:33:17.377Z,22.24
2023-04-26T21:38:21.012Z,23.12
2023-04-26T21:43:26.281Z,24.17
2023-04-26T21:48:29.960Z,25.05
2023-04-26T21:53:33.540Z,25.38
2023-04-26T21:58:38.856Z,24.81
2023-04-26T22:03:43.323Z,24.93
2023-04-26T22:08:47.036Z,25.92
2023-04-26T22:13:52.302Z,27.85
2023-04-26T22:18:55.924Z,26.38
2023-04-26T22:23:59.589Z,26.04
2023-04-26T22:29:04.886Z,26.78
2023-04-26T22:34:08.464Z,25.94
2023-04-26T22:39:12.438Z,26.65
2023-04-26T22:44:17.126Z,27.23
2023-04-26T22:49:20.703Z,27.46
2023-04-26T22:54:24.290Z,26.28
2023-04-26T22:59:29.537Z,27.07
2023-04-26T23:04:33.289Z,27.09
2023-04-26T23:09:36.980Z,26.41
2023-04-26T23:14:43.212Z,24.60
2023-04-26T23:19:46.838Z,24.14
2023-04-26T23:24:50.477Z,24.29
2023-04-26T23:29:56.759Z,23.30
2023-04-26T23:35:00.574Z,24.77
2023-04-26T23:40:04.655Z,25.42
2023-04-26T23:45:11.389Z,25.32
2023-04-26T23:50:15.003Z,25.02
2023-04-26T23:55:18.866Z,25.56
